Time;durP1;ratioP1;P1;durP2;ratioP2;P2;SDS_P1;SDS_P2;PMS_P1;PMS_P2;Temp;Humidity;BMP_temperature;BMP_pressure;BME280_temperature;BME280_humidity;BME280_pressure;Samples;Min_cycle;Max_cycle;Signal;HPM_P1;HPM_P2
2022/09/12 00:01:56;;;;;;;13.98;11.20;;;19.10;99.90;;;;;;5072704;28;20178;-53
2022/09/12 00:04:22;;;;;;;15.68;12.02;;;19.10;99.90;;;;;;5088059;28;20182;-50
2022/09/12 00:06:48;;;;;;;15.48;11.23;;;19.10;99.90;;;;;;5092536;28;20268;-50
2022/09/12 00:09:14;;;;;;;12.73;11.15;;;19.10;99.90;;;;;;5074977;28;20312;-52
2022/09/12 00:11:42;;;;;;;16.63;11.10;;;19.10;99.90;;;;;;5104958;28;20184;-51
2022/09/12 00:14:11;;;;;;;13.65;11.18;;;19.10;99.90;;;;;;5073473;28;20275;-50
2022/09/12 00:16:37;;;;;;;15.23;12.27;;;19.00;99.90;;;;;;5092494;28;20206;-50
2022/09/12 00:19:04;;;;;;;13.23;11.10;;;19.00;99.90;;;;;;5095503;28;20260;-50
2022/09/12 00:21:34;;;;;;;16.75;12.45;;;19.00;99.90;;;;;;5096643;28;20273;-51
2022/09/12 00:24:00;;;;;;;16.17;12.38;;;19.00;99.90;;;;;;5091615;28;20184;-49
2022/09/12 00:26:26;;;;;;;14.50;12.55;;;18.90;99.90;;;;;;5093918;28;20192;-49
2022/09/12 00:28:51;;;;;;;14.40;12.13;;;18.90;99.90;;;;;;5078133;28;20266;-51
2022/09/12 00:31:22;;;;;;;19.13;13.23;;;18.90;99.90;;;;;;5096582;28;20166;-50
2022/09/12 00:33:49;;;;;;;16.52;13.20;;;18.90;99.90;;;;;;5095611;28;20182;-49
2022/09/12 00:36:18;;;;;;;17.33;14.98;;;18.80;99.90;;;;;;5095558;28;20250;-49
2022/09/12 00:38:45;;;;;;;16.42;14.55;;;18.80;99.90;;;;;;5096252;28;20199;-46
2022/09/12 00:41:23;;;;;;;19.55;16.67;;;18.80;99.90;;;;;;5096582;28;20185;-50
2022/09/12 00:43:52;;;;;;;28.10;17.92;;;18.70;99.90;;;;;;5094576;28;20173;-50
2022/09/12 00:46:46;;;;;;;23.63;18.42;;;18.70;99.90;;;;;;5088695;28;20178;-50
2022/09/12 00:49:33;;;;;;;26.98;19.55;;;18.70;99.90;;;;;;5076090;28;20174;-46
2022/09/12 00:52:05;;;;;;;25.35;20.15;;;18.60;99.90;;;;;;5096034;28;20296;-49
2022/09/12 00:54:36;;;;;;;25.60;19.77;;;18.60;99.90;;;;;;5076217;28;20190;-49
2022/09/12 00:57:06;;;;;;;28.80;20.15;;;18.50;99.90;;;;;;5089007;28;20455;-48
2022/09/12 00:59:47;;;;;;;24.42;20.88;;;18.50;99.90;;;;;;5096084;28;20249;-47
2022/09/12 01:02:13;;;;;;;30.23;21.52;;;18.30;99.90;;;;;;5094260;28;20174;-46
2022/09/12 01:04:40;;;;;;;26.58;20.58;;;18.30;99.90;;;;;;5095133;28;20591;-49
2022/09/12 01:07:07;;;;;;;27.52;21.80;;;18.30;99.90;;;;;;5090707;28;20268;-48
2022/09/12 01:09:33;;;;;;;29.73;21.13;;;18.30;99.90;;;;;;5095281;28;20590;-50
2022/09/12 01:12:00;;;;;;;27.73;21.65;;;18.30;99.90;;;;;;5108090;28;20173;-53
2022/09/12 01:14:28;;;;;;;25.98;21.83;;;18.30;99.90;;;;;;5093915;28;20178;-50
2022/09/12 01:16:54;;;;;;;30.05;22.63;;;18.20;99.90;;;;;;5095758;28;20305;-52
2022/09/12 01:19:57;;;;;;;27.40;21.30;;;18.20;99.90;;;;;;5077441;28;20269;-49
2022/09/12 01:22:31;;;;;;;25.70;21.17;;;18.20;99.90;;;;;;5095460;28;20580;-50
2022/09/12 01:25:04;;;;;;;25.77;22.02;;;18.20;99.90;;;;;;5087868;28;20181;-52
2022/09/12 01:28:02;;;;;;;27.42;21.33;;;18.20;99.90;;;;;;5095006;28;20170;-48
2022/09/12 01:30:41;;;;;;;27.75;21.55;;;18.20;99.90;;;;;;5076906;28;20190;-48
2022/09/12 01:33:41;;;;;;;25.25;20.80;;;18.20;99.90;;;;;;5095222;28;20564;-48
2022/09/12 01:36:48;;;;;;;29.52;21.25;;;18.20;99.90;;;;;;5095202;28;20260;-46
2022/09/12 01:39:35;;;;;;;28.98;21.17;;;18.20;99.90;;;;;;5094890;28;20174;-47
2022/09/12 01:42:14;;;;;;;27.25;20.65;;;18.10;99.90;;;;;;5077068;28;20166;-48
2022/09/12 01:44:53;;;;;;;27.88;21.10;;;18.20;99.90;;;;;;5091922;28;20186;-47
2022/09/12 01:47:33;;;;;;;23.42;19.90;;;18.20;99.90;;;;;;5088713;28;20174;-51
2022/09/12 01:50:06;;;;;;;28.58;21.42;;;18.20;99.90;;;;;;5076887;28;20169;-51
2022/09/12 01:52:54;;;;;;;25.98;19.85;;;18.10;99.90;;;;;;5094831;28;20586;-52
2022/09/12 01:55:27;;;;;;;27.95;21.02;;;18.10;99.90;;;;;;5074007;28;20255;-56
2022/09/12 01:58:23;;;;;;;24.73;20.30;;;18.10;99.90;;;;;;5089694;28;20170;-48
2022/09/12 02:00:57;;;;;;;28.42;19.67;;;18.10;99.90;;;;;;5094738;28;20178;-49
2022/09/12 02:03:34;;;;;;;26.25;19.85;;;18.10;99.90;;;;;;5094003;28;20251;-48
2022/09/12 02:06:17;;;;;;;26.02;20.08;;;18.10;99.90;;;;;;5073931;28;20748;-48
2022/09/12 02:08:51;;;;;;;26.33;21.02;;;18.10;99.90;;;;;;5091459;28;20228;-48
2022/09/12 02:11:18;;;;;;;27.13;20.60;;;18.10;99.90;;;;;;5101098;28;20168;-53
2022/09/12 02:13:54;;;;;;;25.90;19.70;;;18.10;99.90;;;;;;5094202;28;20331;-49
2022/09/12 02:16:35;;;;;;;33.00;21.02;;;18.10;99.90;;;;;;5059015;28;20657;-50
2022/09/12 02:19:13;;;;;;;27.00;20.48;;;18.10;99.90;;;;;;5089166;28;20170;-48
2022/09/12 02:21:44;;;;;;;26.17;20.85;;;18.10;99.90;;;;;;5094724;28;20169;-45
2022/09/12 02:24:13;;;;;;;25.77;20.20;;;18.10;99.90;;;;;;5094882;28;20166;-50
2022/09/12 02:26:58;;;;;;;28.35;20.48;;;18.10;99.90;;;;;;5092130;28;20622;-49
2022/09/12 02:29:24;;;;;;;28.00;20.80;;;18.10;99.90;;;;;;5089735;28;20755;-48
2022/09/12 02:32:19;;;;;;;31.77;20.63;;;18.10;99.90;;;;;;5093879;28;20272;-49
2022/09/12 02:35:12;;;;;;;26.27;20.05;;;18.10;99.90;;;;;;5093953;28;20189;-50
2022/09/12 02:37:56;;;;;;;30.38;21.00;;;18.10;99.90;;;;;;5087654;28;20220;-47
2022/09/12 02:40:23;;;;;;;33.42;21.75;;;18.00;99.90;;;;;;5077072;28;20177;-47
2022/09/12 02:42:49;;;;;;;30.90;21.45;;;18.10;99.90;;;;;;5093580;28;20198;-49
2022/09/12 02:45:16;;;;;;;29.70;21.50;;;18.10;99.90;;;;;;5093331;28;20518;-46
2022/09/12 02:47:49;;;;;;;27.52;21.67;;;18.10;99.90;;;;;;5092796;28;20204;-49
2022/09/12 02:50:15;;;;;;;26.85;21.52;;;18.00;99.90;;;;;;5085164;28;20177;-49
2022/09/12 02:52:41;;;;;;;29.48;21.63;;;18.00;99.90;;;;;;5088433;28;20182;-45
2022/09/12 02:55:10;;;;;;;29.77;22.58;;;18.00;99.90;;;;;;5087655;28;20259;-48
2022/09/12 02:57:36;;;;;;;27.88;21.63;;;18.00;99.90;;;;;;5093303;28;20271;-45
2022/09/12 03:00:02;;;;;;;30.40;21.35;;;18.10;99.90;;;;;;5093471;28;20178;-46
2022/09/12 03:02:53;;;;;;;30.85;22.02;;;18.00;99.90;;;;;;5075477;28;20264;-45
2022/09/12 03:05:43;;;;;;;28.83;22.45;;;18.10;99.90;;;;;;5070209;28;20173;-51
2022/09/12 03:08:39;;;;;;;29.20;22.35;;;18.00;99.90;;;;;;5073159;28;20190;-53
2022/09/12 03:11:42;;;;;;;31.00;21.77;;;18.00;99.90;;;;;;5098574;28;20184;-45
2022/09/12 03:14:35;;;;;;;27.02;22.02;;;18.00;99.90;;;;;;5072750;28;20327;-45
2022/09/12 03:17:27;;;;;;;31.85;22.48;;;18.00;99.90;;;;;;5093232;28;20207;-46
2022/09/12 03:19:55;;;;;;;32.95;22.45;;;18.00;99.90;;;;;;5092978;28;20228;-45
2022/09/12 03:22:32;;;;;;;31.10;23.45;;;17.90;99.90;;;;;;5093897;28;20226;-45
2022/09/12 03:25:07;;;;;;;29.13;22.95;;;18.00;99.90;;;;;;5070376;28;20186;-45
2022/09/12 03:27:43;;;;;;;31.35;23.15;;;18.00;99.90;;;;;;5091347;28;20173;-46
2022/09/12 03:30:09;;;;;;;30.17;22.45;;;18.00;99.90;;;;;;5092965;28;20178;-49
2022/09/12 03:32:48;;;;;;;34.42;23.77;;;17.90;99.90;;;;;;5093167;28;20205;-52
2022/09/12 03:35:15;;;;;;;33.22;22.65;;;17.90;99.90;;;;;;5091505;28;20221;-50
2022/09/12 03:37:41;;;;;;;32.47;23.42;;;17.90;99.90;;;;;;5092932;28;20319;-51
2022/09/12 03:40:09;;;;;;;32.63;23.23;;;17.90;99.90;;;;;;5092621;28;20273;-50
2022/09/12 03:42:34;;;;;;;32.47;24.63;;;17.90;99.90;;;;;;5093105;28;20178;-54
2022/09/12 03:45:00;;;;;;;35.20;24.52;;;17.90;99.90;;;;;;5090461;28;20186;-49
2022/09/12 03:47:26;;;;;;;31.48;23.02;;;17.80;99.90;;;;;;5088257;28;20189;-50
2022/09/12 03:49:52;;;;;;;36.70;24.73;;;17.90;99.90;;;;;;5092416;28;20637;-51
2022/09/12 03:52:18;;;;;;;30.17;22.50;;;17.90;99.90;;;;;;5094348;28;20162;-49
2022/09/12 03:54:44;;;;;;;30.35;22.15;;;17.90;99.90;;;;;;5078849;28;20269;-48
2022/09/12 03:57:09;;;;;;;28.52;22.10;;;17.90;99.90;;;;;;5077535;28;20209;-49
2022/09/12 03:59:35;;;;;;;33.33;23.60;;;17.90;99.90;;;;;;5095583;28;20264;-54
2022/09/12 04:02:01;;;;;;;33.55;23.75;;;17.90;99.90;;;;;;5093545;28;20521;-49
2022/09/12 04:04:27;;;;;;;30.95;22.85;;;17.90;99.90;;;;;;5096907;28;20649;-48
2022/09/12 04:06:52;;;;;;;31.67;23.67;;;17.90;99.90;;;;;;5091760;28;20189;-44
2022/09/12 04:09:18;;;;;;;32.15;22.65;;;17.90;99.90;;;;;;5090571;28;20641;-51
2022/09/12 04:11:44;;;;;;;33.42;23.30;;;17.90;99.90;;;;;;5106075;28;20188;-50
2022/09/12 04:14:10;;;;;;;32.72;23.50;;;17.90;99.90;;;;;;5097117;28;20682;-49
2022/09/12 04:16:36;;;;;;;34.33;23.00;;;17.90;99.90;;;;;;5092479;28;20206;-46
2022/09/12 04:19:01;;;;;;;31.80;23.13;;;17.90;99.90;;;;;;5089199;28;20182;-50
2022/09/12 04:21:27;;;;;;;31.10;22.83;;;17.90;99.90;;;;;;5078698;28;20535;-49
2022/09/12 04:23:53;;;;;;;29.92;22.90;;;17.90;99.90;;;;;;5096759;28;20629;-45
2022/09/12 04:26:19;;;;;;;29.38;22.35;;;17.90;99.90;;;;;;5095960;28;20182;-46
2022/09/12 04:28:46;;;;;;;29.38;22.55;;;17.80;99.90;;;;;;5090087;28;20710;-50
2022/09/12 04:31:16;;;;;;;34.55;22.75;;;17.80;99.90;;;;;;5078478;28;20622;-51
2022/09/12 04:33:43;;;;;;;31.70;22.65;;;17.80;99.90;;;;;;5096239;28;20166;-49
2022/09/12 04:36:15;;;;;;;32.40;23.25;;;17.80;99.90;;;;;;5096272;28;20316;-50
2022/09/12 04:38:43;;;;;;;29.95;22.58;;;17.80;99.90;;;;;;5076596;28;20265;-50
2022/09/12 04:41:14;;;;;;;30.52;23.45;;;17.80;99.90;;;;;;5090878;28;20186;-51
2022/09/12 04:43:41;;;;;;;31.05;22.92;;;17.70;99.90;;;;;;5093347;28;20181;-48
2022/09/12 04:46:08;;;;;;;29.40;23.23;;;17.80;99.90;;;;;;5089002;28;20191;-51
2022/09/12 04:48:34;;;;;;;29.65;22.70;;;17.70;99.90;;;;;;5074768;28;20664;-49
2022/09/12 04:51:12;;;;;;;33.95;23.80;;;17.70;99.90;;;;;;5091466;28;20196;-55
2022/09/12 04:53:38;;;;;;;31.17;23.35;;;17.70;99.90;;;;;;5090094;28;20170;-49
2022/09/12 04:56:06;;;;;;;34.85;24.08;;;17.70;99.90;;;;;;5089312;28;20209;-52
2022/09/12 04:58:32;;;;;;;32.78;23.83;;;17.70;99.90;;;;;;5092700;28;20185;-50
2022/09/12 05:01:10;;;;;;;34.15;24.02;;;17.60;99.90;;;;;;5070728;28;20189;-47
2022/09/12 05:03:37;;;;;;;32.92;23.38;;;17.60;99.90;;;;;;5092386;28;20200;-49
2022/09/12 05:06:06;;;;;;;35.53;24.73;;;17.60;99.90;;;;;;5078113;28;20250;-49
2022/09/12 05:08:34;;;;;;;38.53;25.35;;;17.60;99.90;;;;;;5061795;28;20639;-48
2022/09/12 05:11:05;;;;;;;33.70;24.90;;;17.50;99.90;;;;;;5085216;28;20231;-56
2022/09/12 05:13:31;;;;;;;37.80;25.58;;;17.50;99.90;;;;;;5086692;28;20633;-50
2022/09/12 05:15:59;;;;;;;39.22;25.50;;;17.50;99.90;;;;;;5076081;28;20210;-49
2022/09/12 05:18:25;;;;;;;37.33;25.83;;;17.50;99.90;;;;;;5094356;28;20192;-47
2022/09/12 05:20:53;;;;;;;36.25;25.73;;;17.40;99.90;;;;;;5093338;28;20223;-50
2022/09/12 05:23:18;;;;;;;36.85;26.33;;;17.40;99.90;;;;;;5057217;28;20213;-49
2022/09/12 05:25:51;;;;;;;37.97;26.27;;;17.40;99.90;;;;;;5093777;28;20711;-46
2022/09/12 05:28:19;;;;;;;41.72;25.95;;;17.40;99.90;;;;;;5095457;28;20205;-46
2022/09/12 05:30:46;;;;;;;34.75;25.02;;;17.40;99.90;;;;;;5076271;28;20196;-57
2022/09/12 05:33:12;;;;;;;41.58;27.40;;;17.30;99.90;;;;;;5075571;28;20670;-48
2022/09/12 05:35:39;;;;;;;36.95;25.83;;;17.30;99.90;;;;;;5076245;28;20222;-48
2022/09/12 05:38:06;;;;;;;41.85;26.23;;;17.30;99.90;;;;;;5090419;28;20212;-51
2022/09/12 05:40:32;;;;;;;43.28;27.08;;;17.30;99.90;;;;;;5075450;28;20192;-51
2022/09/12 05:42:59;;;;;;;38.08;25.25;;;17.30;99.90;;;;;;5094939;28;20169;-53
2022/09/12 05:45:25;;;;;;;37.70;26.23;;;17.30;99.90;;;;;;5078033;28;20172;-51
2022/09/12 05:47:53;;;;;;;41.85;26.90;;;17.30;99.90;;;;;;5087260;28;20186;-48
2022/09/12 05:50:19;;;;;;;42.45;27.83;;;17.30;99.90;;;;;;5087203;28;20182;-47
2022/09/12 05:52:45;;;;;;;34.97;26.42;;;17.30;99.90;;;;;;5073892;28;20519;-46
2022/09/12 05:55:11;;;;;;;42.95;26.55;;;17.30;99.90;;;;;;5076627;28;20240;-48
2022/09/12 05:57:37;;;;;;;38.33;27.73;;;17.30;99.90;;;;;;5094252;28;20209;-52
2022/09/12 06:00:04;;;;;;;34.80;25.27;;;17.30;99.90;;;;;;5072643;28;20582;-51
2022/09/12 06:02:37;;;;;;;36.70;27.15;;;17.30;99.90;;;;;;5071828;28;20306;-50
2022/09/12 06:05:03;;;;;;;38.72;27.38;;;17.30;99.90;;;;;;5040565;28;20183;-56
2022/09/12 06:07:30;;;;;;;42.83;27.63;;;17.30;99.90;;;;;;5076863;28;20178;-49
2022/09/12 06:09:58;;;;;;;40.33;27.50;;;17.20;99.90;;;;;;5080238;28;20186;-49
2022/09/12 06:12:27;;;;;;;44.78;27.65;;;17.20;99.90;;;;;;5059739;28;20209;-50
2022/09/12 06:14:53;;;;;;;40.97;28.02;;;17.20;99.90;;;;;;5076161;28;20190;-52
2022/09/12 06:17:19;;;;;;;39.78;28.08;;;17.20;99.90;;;;;;5076877;28;20258;-54
2022/09/12 06:19:44;;;;;;;40.72;28.38;;;17.20;99.90;;;;;;5083434;28;20194;-52
2022/09/12 06:22:10;;;;;;;41.65;27.52;;;17.20;99.90;;;;;;5046660;28;20276;-53
2022/09/12 06:24:36;;;;;;;41.65;28.90;;;17.20;99.90;;;;;;5060684;28;20645;-55
2022/09/12 06:27:02;;;;;;;42.40;28.27;;;17.20;99.90;;;;;;5091561;28;20190;-52
2022/09/12 06:29:28;;;;;;;43.67;27.52;;;17.20;99.90;;;;;;5077821;28;20569;-50
2022/09/12 06:31:54;;;;;;;42.00;27.02;;;17.20;99.90;;;;;;5081432;28;20223;-53
2022/09/12 06:34:19;;;;;;;37.50;26.88;;;17.30;99.90;;;;;;5052399;28;20210;-54
2022/09/12 06:36:47;;;;;;;45.15;28.08;;;17.30;99.90;;;;;;5071337;28;20239;-50
2022/09/12 06:39:15;;;;;;;35.13;26.38;;;17.30;99.90;;;;;;5073499;28;20186;-52
2022/09/12 06:41:42;;;;;;;44.60;26.63;;;17.30;99.90;;;;;;5072305;28;20172;-50
2022/09/12 06:44:14;;;;;;;43.47;27.25;;;17.40;99.90;;;;;;5076196;28;20195;-50
2022/09/12 06:46:40;;;;;;;41.05;26.67;;;17.40;99.90;;;;;;5053234;28;20268;-48
2022/09/12 06:49:06;;;;;;;38.55;26.85;;;17.50;99.90;;;;;;5055223;28;20321;-53
2022/09/12 06:51:35;;;;;;;40.05;26.35;;;17.50;99.90;;;;;;5073504;28;20183;-48
2022/09/12 06:54:01;;;;;;;38.50;26.55;;;17.50;99.90;;;;;;5072700;28;20182;-52
2022/09/12 06:56:27;;;;;;;39.53;26.33;;;17.60;99.90;;;;;;5072584;28;20210;-47
2022/09/12 06:58:55;;;;;;;39.30;25.65;;;17.60;99.90;;;;;;5072828;28;20183;-45
2022/09/12 07:01:23;;;;;;;35.70;25.77;;;17.60;99.90;;;;;;5086000;28;20192;-50
2022/09/12 07:03:51;;;;;;;43.17;24.52;;;17.60;99.90;;;;;;5072120;28;20187;-55
2022/09/12 07:06:19;;;;;;;38.63;26.60;;;17.60;99.90;;;;;;5059823;28;20183;-49
2022/09/12 07:08:46;;;;;;;36.88;25.10;;;17.70;99.90;;;;;;5068794;28;20177;-47
2022/09/12 07:11:22;;;;;;;36.63;24.80;;;17.70;99.90;;;;;;5075198;28;20183;-48
2022/09/12 07:13:50;;;;;;;38.25;25.52;;;17.80;99.90;;;;;;5080084;28;20680;-51
2022/09/12 07:16:17;;;;;;;34.67;24.30;;;17.90;99.90;;;;;;5079889;28;20210;-51
2022/09/12 07:18:45;;;;;;;37.78;25.10;;;17.90;99.90;;;;;;5080324;28;20186;-53
2022/09/12 07:21:13;;;;;;;38.80;25.73;;;17.90;99.90;;;;;;5078267;28;20178;-53
2022/09/12 07:23:40;;;;;;;38.38;25.30;;;17.90;99.90;;;;;;5077257;28;20274;-53
2022/09/12 07:26:08;;;;;;;36.65;26.08;;;18.00;99.90;;;;;;5074881;28;20193;-55
2022/09/12 07:28:34;;;;;;;37.58;25.02;;;18.10;99.90;;;;;;5078893;28;20214;-50
2022/09/12 07:31:12;;;;;;;36.08;23.88;;;18.10;99.90;;;;;;5076508;28;20649;-52
2022/09/12 07:33:39;;;;;;;34.13;24.33;;;18.20;99.90;;;;;;5084917;28;20263;-54
2022/09/12 07:36:16;;;;;;;34.70;24.05;;;18.20;99.90;;;;;;5092365;28;20228;-53
2022/09/12 07:38:43;;;;;;;35.33;24.40;;;18.30;99.90;;;;;;5059615;28;20288;-53
2022/09/12 07:41:14;;;;;;;39.95;25.85;;;18.30;99.90;;;;;;5054777;28;20188;-50
2022/09/12 07:43:40;;;;;;;34.42;23.92;;;18.40;99.90;;;;;;5087242;28;20257;-54
2022/09/12 07:46:07;;;;;;;39.42;24.55;;;18.50;99.90;;;;;;5072326;28;20228;-54
2022/09/12 07:48:33;;;;;;;34.45;25.17;;;18.50;99.90;;;;;;5074472;28;20629;-48
2022/09/12 07:51:01;;;;;;;34.90;24.65;;;18.60;99.90;;;;;;5094549;28;20188;-49
2022/09/12 07:53:38;;;;;;;31.75;24.40;;;18.60;99.90;;;;;;5094227;28;20170;-54
2022/09/12 07:56:05;;;;;;;37.55;24.60;;;18.60;99.90;;;;;;5070995;28;20213;-49
2022/09/12 07:58:33;;;;;;;38.22;25.38;;;18.70;99.90;;;;;;5076179;28;20210;-53
2022/09/12 08:01:02;;;;;;;35.90;24.98;;;18.70;99.90;;;;;;5073686;28;20178;-51
2022/09/12 08:03:28;;;;;;;37.10;24.77;;;18.80;99.90;;;;;;5085686;28;20186;-56
2022/09/12 08:05:54;;;;;;;34.15;24.05;;;18.80;99.90;;;;;;5085519;28;20193;-54
2022/09/12 08:08:19;;;;;;;35.22;24.50;;;18.90;99.90;;;;;;5086396;28;20182;-50
2022/09/12 08:10:45;;;;;;;34.70;23.63;;;19.00;99.90;;;;;;5077251;28;20212;-56
2022/09/12 08:13:11;;;;;;;33.88;22.55;;;19.10;99.90;;;;;;5072375;28;20225;-48
2022/09/12 08:15:37;;;;;;;34.08;23.92;;;19.10;99.90;;;;;;5081141;28;20519;-50
2022/09/12 08:18:03;;;;;;;32.55;24.05;;;19.10;99.90;;;;;;5092012;28;20174;-56
2022/09/12 08:20:29;;;;;;;31.42;23.13;;;19.20;99.90;;;;;;5075944;28;20181;-50
2022/09/12 08:22:55;;;;;;;30.08;23.00;;;19.20;99.90;;;;;;5083156;28;20189;-48
2022/09/12 08:25:21;;;;;;;35.65;23.73;;;19.30;99.90;;;;;;5069757;28;20617;-46
2022/09/12 08:27:47;;;;;;;30.80;22.80;;;19.40;99.90;;;;;;5079204;28;20578;-51
2022/09/12 08:30:13;;;;;;;30.95;22.95;;;19.40;99.90;;;;;;5082748;28;20189;-50
2022/09/12 08:32:39;;;;;;;33.72;23.35;;;19.50;99.90;;;;;;5084245;28;20650;-50
2022/09/12 08:35:05;;;;;;;108.93;31.48;;;19.50;99.90;;;;;;5056881;28;20243;-53
2022/09/12 08:37:31;;;;;;;52.45;25.30;;;19.60;99.90;;;;;;5092700;28;20281;-53
2022/09/12 08:39:57;;;;;;;37.63;23.40;;;19.70;99.90;;;;;;5072497;28;20269;-52
2022/09/12 08:42:57;;;;;;;31.00;22.60;;;19.80;99.90;;;;;;5073052;28;20549;-52
2022/09/12 08:45:35;;;;;;;37.17;22.42;;;19.80;99.90;;;;;;5043869;28;20216;-49
2022/09/12 08:48:03;;;;;;;32.33;21.05;;;19.90;99.90;;;;;;5095723;28;20227;-52
2022/09/12 08:50:29;;;;;;;30.02;20.35;;;20.00;99.90;;;;;;5076765;28;20170;-50
2022/09/12 08:53:02;;;;;;;29.48;20.73;;;20.10;99.90;;;;;;5093349;28;20174;-53
2022/09/12 08:55:38;;;;;;;29.95;19.38;;;20.10;99.90;;;;;;5087303;28;20181;-52
2022/09/12 08:58:15;;;;;;;29.42;19.77;;;20.20;99.90;;;;;;5066376;28;20182;-48
2022/09/12 09:01:00;;;;;;;26.02;18.45;;;20.20;99.90;;;;;;5093393;28;20174;-50
2022/09/12 09:03:44;;;;;;;29.65;19.02;;;20.30;99.90;;;;;;5076634;28;20637;-51
2022/09/12 09:06:42;;;;;;;28.13;17.88;;;20.30;99.90;;;;;;5076713;28;20209;-50
2022/09/12 09:09:55;;;;;;;21.27;13.80;;;20.40;99.90;;;;;;5040536;28;20185;-54
2022/09/12 09:12:43;;;;;;;19.02;13.52;;;20.40;99.90;;;;;;5103333;28;20170;-52
2022/09/12 09:15:40;;;;;;;19.27;12.57;;;20.40;99.90;;;;;;5090076;28;20179;-53
2022/09/12 09:18:19;;;;;;;20.60;14.52;;;20.50;99.90;;;;;;5022775;28;20202;-49
2022/09/12 09:21:22;;;;;;;20.77;15.18;;;20.50;99.90;;;;;;5074524;28;20515;-54
2022/09/12 09:23:55;;;;;;;22.92;16.75;;;20.50;99.90;;;;;;5075066;28;20177;-52
2022/09/12 09:26:27;;;;;;;27.10;16.90;;;20.60;99.90;;;;;;5074169;28;20649;-52
2022/09/12 09:28:59;;;;;;;25.73;16.92;;;20.60;99.90;;;;;;5090056;28;20181;-50
2022/09/12 09:31:31;;;;;;;24.98;17.45;;;20.70;99.90;;;;;;5075703;28;20231;-52
2022/09/12 09:33:58;;;;;;;28.75;18.20;;;20.80;99.90;;;;;;5092459;28;20702;-53
2022/09/12 09:36:43;;;;;;;22.30;17.38;;;20.90;99.90;;;;;;5093481;28;20232;-51
2022/09/12 09:39:47;;;;;;;28.08;17.80;;;20.90;99.90;;;;;;5093311;28;20649;-51
2022/09/12 09:42:28;;;;;;;28.70;18.17;;;21.00;99.90;;;;;;5083693;28;20189;-50
2022/09/12 09:44:58;;;;;;;23.95;17.55;;;21.10;99.90;;;;;;5078032;28;20188;-52
2022/09/12 09:47:24;;;;;;;23.80;17.38;;;21.10;99.90;;;;;;5085791;28;20232;-54
2022/09/12 09:49:50;;;;;;;24.10;16.92;;;21.10;99.90;;;;;;5093233;28;20643;-52
2022/09/12 09:52:27;;;;;;;25.17;17.35;;;21.20;99.90;;;;;;5093572;28;20198;-52
2022/09/12 09:54:58;;;;;;;24.60;17.38;;;21.20;99.90;;;;;;5093206;28;20185;-52
2022/09/12 09:57:33;;;;;;;20.30;15.23;;;21.20;99.90;;;;;;5074438;28;20219;-52
2022/09/12 10:00:25;;;;;;;25.92;15.27;;;21.30;99.90;;;;;;5078708;28;20176;-54
2022/09/12 10:03:11;;;;;;;23.60;16.63;;;21.40;99.90;;;;;;5078095;28;20170;-52
2022/09/12 10:05:53;;;;;;;24.38;14.85;;;21.50;99.90;;;;;;5088840;28;20178;-54
2022/09/12 10:08:21;;;;;;;24.00;16.38;;;21.50;99.90;;;;;;5086886;28;20209;-51
2022/09/12 10:11:14;;;;;;;25.88;16.55;;;21.60;99.90;;;;;;5090114;28;20183;-55
2022/09/12 10:13:50;;;;;;;22.50;15.43;;;21.60;99.90;;;;;;5077164;28;20239;-53
2022/09/12 10:16:31;;;;;;;23.00;15.15;;;21.70;99.90;;;;;;5079235;28;20209;-59
2022/09/12 10:19:00;;;;;;;20.77;13.75;;;21.80;99.90;;;;;;5091688;28;20192;-52
2022/09/12 10:21:40;;;;;;;19.52;13.63;;;21.90;99.90;;;;;;5075506;28;20535;-54
2022/09/12 10:24:25;;;;;;;17.90;12.13;;;22.10;99.90;;;;;;5094318;28;20182;-54
2022/09/12 10:26:55;;;;;;;14.27;10.68;;;22.20;99.90;;;;;;5060527;28;20174;-56
2022/09/12 10:29:28;;;;;;;14.10;10.90;;;22.30;99.90;;;;;;5090972;28;20185;-54
2022/09/12 10:31:58;;;;;;;16.80;11.27;;;22.40;99.90;;;;;;5075637;28;20178;-55
2022/09/12 10:34:36;;;;;;;14.82;11.65;;;22.40;99.90;;;;;;5091332;28;20220;-56
2022/09/12 10:37:09;;;;;;;17.60;10.05;;;22.40;99.90;;;;;;5082716;28;20557;-53
2022/09/12 10:39:37;;;;;;;14.73;9.73;;;22.40;99.90;;;;;;5091346;28;20177;-50
2022/09/12 10:42:04;;;;;;;12.98;9.13;;;22.40;99.90;;;;;;5085863;28;20174;-54
2022/09/12 10:44:34;;;;;;;13.63;8.60;;;22.50;99.90;;;;;;5091293;28;20177;-56
2022/09/12 10:47:19;;;;;;;12.15;9.57;;;22.60;99.90;;;;;;5069455;28;20194;-56
2022/09/12 10:49:45;;;;;;;11.73;8.45;;;22.70;99.30;;;;;;5072346;28;20178;-51
2022/09/12 10:52:22;;;;;;;14.50;9.13;;;22.90;99.70;;;;;;5085156;28;20178;-49
2022/09/12 10:54:49;;;;;;;15.63;9.65;;;22.90;99.10;;;;;;5078852;28;20173;-48
2022/09/12 10:57:53;;;;;;;12.50;9.32;;;23.00;99.10;;;;;;5088824;28;20256;-58
2022/09/12 11:00:26;;;;;;;14.02;7.93;;;23.10;98.20;;;;;;5070527;28;20284;-56
2022/09/12 11:02:55;;;;;;;13.00;8.38;;;23.10;98.40;;;;;;5077119;28;20174;-55
2022/09/12 11:05:20;;;;;;;9.57;8.05;;;23.20;98.40;;;;;;5111299;28;20657;-55
2022/09/12 11:07:54;;;;;;;11.48;7.65;;;23.30;98.30;;;;;;5094717;28;20204;-53
2022/09/12 11:10:37;;;;;;;11.10;7.97;;;23.40;98.10;;;;;;5076366;28;20174;-53
2022/09/12 11:13:44;;;;;;;11.23;8.02;;;23.50;97.60;;;;;;5105449;28;20185;-51
2022/09/12 11:16:58;;;;;;;8.68;7.32;;;23.70;97.30;;;;;;5085844;28;20224;-55
2022/09/12 11:19:42;;;;;;;9.30;7.63;;;23.80;96.50;;;;;;5068650;28;20186;-55
2022/09/12 11:22:08;;;;;;;9.32;6.13;;;23.80;95.90;;;;;;5092203;28;20271;-53
2022/09/12 11:24:33;;;;;;;8.52;6.70;;;23.80;95.50;;;;;;5073115;28;20244;-59
2022/09/12 11:27:26;;;;;;;12.63;7.10;;;23.80;95.20;;;;;;5080669;28;20527;-55
2022/09/12 11:30:00;;;;;;;9.68;6.88;;;23.80;94.40;;;;;;5109103;28;20173;-54
2022/09/12 11:32:50;;;;;;;10.65;6.80;;;23.80;94.30;;;;;;5109948;28;20176;-53
2022/09/12 11:35:24;;;;;;;9.43;6.18;;;23.80;94.40;;;;;;5073733;28;20310;-53
2022/09/12 11:38:18;;;;;;;10.20;6.22;;;23.90;94.30;;;;;;5074465;28;20348;-55
2022/09/12 11:40:51;;;;;;;8.32;6.63;;;24.00;93.60;;;;;;5073772;28;20189;-52
2022/09/12 11:43:34;;;;;;;8.35;5.80;;;24.10;93.60;;;;;;5091580;28;20178;-53
2022/09/12 11:46:12;;;;;;;6.60;5.22;;;24.30;93.10;;;;;;5074606;28;20186;-56
2022/09/12 11:48:52;;;;;;;7.53;5.80;;;24.40;92.50;;;;;;5087199;28;20173;-56
2022/09/12 11:51:32;;;;;;;7.70;5.50;;;24.40;91.50;;;;;;5076602;28;20668;-53
2022/09/12 11:54:19;;;;;;;10.60;6.35;;;24.40;91.40;;;;;;5081189;28;20183;-51
2022/09/12 11:56:46;;;;;;;9.40;6.00;;;24.60;91.50;;;;;;5059152;28;20792;-53
2022/09/12 11:59:30;;;;;;;7.70;5.18;;;24.60;90.50;;;;;;5087926;28;20227;-54
2022/09/12 12:02:01;;;;;;;6.85;5.47;;;24.70;90.10;;;;;;5072153;28;20656;-61
2022/09/12 12:04:40;;;;;;;8.18;5.60;;;24.70;89.80;;;;;;5080612;28;20182;-53
2022/09/12 12:07:09;;;;;;;9.15;6.18;;;24.80;90.00;;;;;;5088218;28;20289;-52
2022/09/12 12:09:44;;;;;;;8.82;4.32;;;24.90;89.10;;;;;;5090012;28;20174;-53
2022/09/12 12:12:18;;;;;;;5.78;4.57;;;25.00;87.70;;;;;;5099107;28;20180;-56
2022/09/12 12:14:47;;;;;;;9.27;4.43;;;25.20;86.80;;;;;;5073180;28;20174;-52
2022/09/12 12:17:18;;;;;;;6.10;3.85;;;25.40;85.80;;;;;;5092145;28;20232;-56
2022/09/12 12:19:46;;;;;;;6.63;4.00;;;25.50;84.20;;;;;;5068313;28;20189;-57
2022/09/12 12:22:17;;;;;;;6.82;3.65;;;25.60;83.20;;;;;;5076629;28;20652;-57
2022/09/12 12:25:23;;;;;;;5.55;3.67;;;25.70;82.20;;;;;;5100519;28;20218;-54
2022/09/12 12:28:00;;;;;;;9.48;3.50;;;25.90;81.10;;;;;;5091857;28;20182;-55
2022/09/12 12:30:29;;;;;;;5.85;3.88;;;26.10;79.20;;;;;;5082686;28;20173;-61
2022/09/12 12:33:05;;;;;;;4.97;3.42;;;26.20;77.10;;;;;;5077530;28;20269;-55
2022/09/12 12:35:36;;;;;;;5.95;3.28;;;26.20;75.40;;;;;;5087160;28;20221;-55
2022/09/12 12:38:03;;;;;;;5.90;3.90;;;26.10;74.90;;;;;;5107158;28;20222;-54
2022/09/12 12:40:30;;;;;;;4.57;3.30;;;26.10;73.40;;;;;;5080856;28;20181;-56
2022/09/12 12:42:57;;;;;;;5.35;3.25;;;26.00;71.20;;;;;;5085184;28;20213;-55
2022/09/12 12:45:25;;;;;;;7.30;3.75;;;25.90;72.20;;;;;;5083883;28;20174;-55
2022/09/12 12:47:52;;;;;;;6.50;4.20;;;26.00;72.70;;;;;;5093587;28;20268;-51
2022/09/12 12:50:20;;;;;;;8.07;4.72;;;26.10;72.80;;;;;;5095112;28;20181;-55
2022/09/12 12:52:54;;;;;;;7.50;4.10;;;26.10;72.40;;;;;;5093625;28;20193;-54
2022/09/12 12:55:25;;;;;;;6.97;3.97;;;26.10;72.20;;;;;;5090010;28;20228;-55
2022/09/12 12:57:53;;;;;;;6.35;4.00;;;26.10;72.20;;;;;;5073293;28;20205;-52
2022/09/12 13:00:27;;;;;;;6.00;4.00;;;26.00;73.10;;;;;;5093369;28;20205;-52